<?xml version="1.0" encoding="UTF-8" standalone="no" ?>
<gpx version="1.1" creator="Visorando" xmlns:xsi="http://www.w3.org/2001/XMLSchema-instance" xmlns="http://www.topografix.com/GPX/1/1" xsi:schemaLocation="http://www.topografix.com/GPX/1/1 http://www.topografix.com/GPX/1/1/gpx.xsd">
<metadata><name>Randonnée du 03/04/2021 à 14:10</name><link href=""><text></text></link></metadata><trk><name>Randonnée du 03/04/2021 à 14:10</name><trkseg><trkpt lat="47.914075" lon="6.801346"><ele>617</ele><time>2021-05-29T12:51:49+02:00</time></trkpt><trkpt lat="47.913946" lon="6.802033"><ele>626</ele><time>2021-05-29T12:51:54+02:00</time></trkpt><trkpt lat="47.913759" lon="6.802505"><ele>635</ele><time>2021-05-29T12:51:59+02:00</time></trkpt><trkpt lat="47.913514" lon="6.802677"><ele>633</ele><time>2021-05-29T12:52:04+02:00</time></trkpt><trkpt lat="47.913327" lon="6.803106"><ele>635</ele><time>2021-05-29T12:52:09+02:00</time></trkpt><trkpt lat="47.91327" lon="6.80332"><ele>636</ele><time>2021-05-29T12:52:14+02:00</time></trkpt><trkpt lat="47.91327" lon="6.803535"><ele>639</ele><time>2021-05-29T12:52:19+02:00</time></trkpt><trkpt lat="47.91327" lon="6.803728"><ele>641</ele><time>2021-05-29T12:52:24+02:00</time></trkpt><trkpt lat="47.913442" lon="6.803406"><ele>647</ele><time>2021-05-29T12:52:29+02:00</time></trkpt><trkpt lat="47.913543" lon="6.803191"><ele>648</ele><time>2021-05-29T12:52:34+02:00</time></trkpt><trkpt lat="47.913615" lon="6.803063"><ele>649</ele><time>2021-05-29T12:52:39+02:00</time></trkpt><trkpt lat="47.91373" lon="6.803063"><ele>654</ele><time>2021-05-29T12:52:44+02:00</time></trkpt><trkpt lat="47.913658" lon="6.80347"><ele>661</ele><time>2021-05-29T12:52:49+02:00</time></trkpt><trkpt lat="47.913658" lon="6.803749"><ele>665</ele><time>2021-05-29T12:52:54+02:00</time></trkpt><trkpt lat="47.913629" lon="6.804007"><ele>664</ele><time>2021-05-29T12:52:59+02:00</time></trkpt><trkpt lat="47.91373" lon="6.804329"><ele>668</ele><time>2021-05-29T12:53:04+02:00</time></trkpt><trkpt lat="47.913802" lon="6.804694"><ele>668</ele><time>2021-05-29T12:53:09+02:00</time></trkpt><trkpt lat="47.913902" lon="6.805037"><ele>669</ele><time>2021-05-29T12:53:14+02:00</time></trkpt><trkpt lat="47.913874" lon="6.804651"><ele>672</ele><time>2021-05-29T12:53:19+02:00</time></trkpt><trkpt lat="47.913874" lon="6.804457"><ele>674</ele><time>2021-05-29T12:53:24+02:00</time></trkpt><trkpt lat="47.913859" lon="6.804307"><ele>675</ele><time>2021-05-29T12:53:29+02:00</time></trkpt><trkpt lat="47.913902" lon="6.804221"><ele>678</ele><time>2021-05-29T12:53:34+02:00</time></trkpt><trkpt lat="47.914046" lon="6.804415"><ele>683</ele><time>2021-05-29T12:53:39+02:00</time></trkpt><trkpt lat="47.914089" lon="6.804522"><ele>684</ele><time>2021-05-29T12:53:44+02:00</time></trkpt><trkpt lat="47.914147" lon="6.804436"><ele>687</ele><time>2021-05-29T12:53:49+02:00</time></trkpt><trkpt lat="47.914046" lon="6.804093"><ele>684</ele><time>2021-05-29T12:53:54+02:00</time></trkpt><trkpt lat="47.914032" lon="6.803943"><ele>684</ele><time>2021-05-29T12:53:59+02:00</time></trkpt><trkpt lat="47.914204" lon="6.803728"><ele>688</ele><time>2021-05-29T12:54:04+02:00</time></trkpt><trkpt lat="47.914449" lon="6.803728"><ele>690</ele><time>2021-05-29T12:54:09+02:00</time></trkpt><trkpt lat="47.914406" lon="6.804007"><ele>690</ele><time>2021-05-29T12:54:14+02:00</time></trkpt><trkpt lat="47.91455" lon="6.804114"><ele>692</ele><time>2021-05-29T12:54:19+02:00</time></trkpt><trkpt lat="47.91478" lon="6.80435"><ele>694</ele><time>2021-05-29T12:54:24+02:00</time></trkpt><trkpt lat="47.914866" lon="6.804436"><ele>696</ele><time>2021-05-29T12:54:29+02:00</time></trkpt><trkpt lat="47.915326" lon="6.804586"><ele>700</ele><time>2021-05-29T12:54:34+02:00</time></trkpt><trkpt lat="47.915456" lon="6.804887"><ele>702</ele><time>2021-05-29T12:54:39+02:00</time></trkpt><trkpt lat="47.915427" lon="6.805123"><ele>703</ele><time>2021-05-29T12:54:44+02:00</time></trkpt><trkpt lat="47.915571" lon="6.80538"><ele>706</ele><time>2021-05-29T12:54:49+02:00</time></trkpt><trkpt lat="47.915772" lon="6.805273"><ele>710</ele><time>2021-05-29T12:54:54+02:00</time></trkpt><trkpt lat="47.915973" lon="6.805187"><ele>712</ele><time>2021-05-29T12:54:59+02:00</time></trkpt><trkpt lat="47.915858" lon="6.805423"><ele>716</ele><time>2021-05-29T12:55:04+02:00</time></trkpt><trkpt lat="47.91606" lon="6.805466"><ele>720</ele><time>2021-05-29T12:55:09+02:00</time></trkpt><trkpt lat="47.916132" lon="6.805573"><ele>723</ele><time>2021-05-29T12:55:14+02:00</time></trkpt><trkpt lat="47.916045" lon="6.805745"><ele>724</ele><time>2021-05-29T12:55:19+02:00</time></trkpt><trkpt lat="47.916189" lon="6.805895"><ele>728</ele><time>2021-05-29T12:55:24+02:00</time></trkpt><trkpt lat="47.91616" lon="6.806238"><ele>726</ele><time>2021-05-29T12:55:29+02:00</time></trkpt><trkpt lat="47.91616" lon="6.806453"><ele>724</ele><time>2021-05-29T12:55:34+02:00</time></trkpt><trkpt lat="47.916376" lon="6.806775"><ele>726</ele><time>2021-05-29T12:55:39+02:00</time></trkpt><trkpt lat="47.916477" lon="6.807032"><ele>722</ele><time>2021-05-29T12:55:44+02:00</time></trkpt><trkpt lat="47.916419" lon="6.807268"><ele>719</ele><time>2021-05-29T12:55:49+02:00</time></trkpt><trkpt lat="47.916333" lon="6.807226"><ele>717</ele><time>2021-05-29T12:55:54+02:00</time></trkpt><trkpt lat="47.916232" lon="6.80714"><ele>716</ele><time>2021-05-29T12:55:59+02:00</time></trkpt><trkpt lat="47.916002" lon="6.806925"><ele>711</ele><time>2021-05-29T12:56:04+02:00</time></trkpt><trkpt lat="47.915758" lon="6.806711"><ele>705</ele><time>2021-05-29T12:56:09+02:00</time></trkpt><trkpt lat="47.915412" lon="6.806174"><ele>699</ele><time>2021-05-29T12:56:14+02:00</time></trkpt><trkpt lat="47.915182" lon="6.805638"><ele>698</ele><time>2021-05-29T12:56:19+02:00</time></trkpt><trkpt lat="47.914995" lon="6.805273"><ele>697</ele><time>2021-05-29T12:56:24+02:00</time></trkpt><trkpt lat="47.914823" lon="6.804951"><ele>696</ele><time>2021-05-29T12:56:29+02:00</time></trkpt><trkpt lat="47.914708" lon="6.804586"><ele>695</ele><time>2021-05-29T12:56:34+02:00</time></trkpt><trkpt lat="47.914492" lon="6.804093"><ele>691</ele><time>2021-05-29T12:56:39+02:00</time></trkpt><trkpt lat="47.914679" lon="6.804028"><ele>692</ele><time>2021-05-29T12:56:44+02:00</time></trkpt><trkpt lat="47.914765" lon="6.803857"><ele>691</ele><time>2021-05-29T12:56:49+02:00</time></trkpt><trkpt lat="47.914995" lon="6.804007"><ele>692</ele><time>2021-05-29T12:56:54+02:00</time></trkpt><trkpt lat="47.915341" lon="6.804007"><ele>691</ele><time>2021-05-29T12:56:59+02:00</time></trkpt><trkpt lat="47.915513" lon="6.803943"><ele>686</ele><time>2021-05-29T12:57:04+02:00</time></trkpt><trkpt lat="47.915326" lon="6.803621"><ele>681</ele><time>2021-05-29T12:57:09+02:00</time></trkpt><trkpt lat="47.915182" lon="6.803363"><ele>677</ele><time>2021-05-29T12:57:14+02:00</time></trkpt><trkpt lat="47.914981" lon="6.803127"><ele>674</ele><time>2021-05-29T12:57:19+02:00</time></trkpt><trkpt lat="47.914852" lon="6.802955"><ele>669</ele><time>2021-05-29T12:57:24+02:00</time></trkpt><trkpt lat="47.914765" lon="6.802955"><ele>669</ele><time>2021-05-29T12:57:29+02:00</time></trkpt><trkpt lat="47.914564" lon="6.802955"><ele>669</ele><time>2021-05-29T12:57:34+02:00</time></trkpt><trkpt lat="47.914521" lon="6.802805"><ele>664</ele><time>2021-05-29T12:57:39+02:00</time></trkpt><trkpt lat="47.914607" lon="6.802677"><ele>662</ele><time>2021-05-29T12:57:44+02:00</time></trkpt><trkpt lat="47.914952" lon="6.802569"><ele>658</ele><time>2021-05-29T12:57:49+02:00</time></trkpt><trkpt lat="47.915154" lon="6.802483"><ele>652</ele><time>2021-05-29T12:57:54+02:00</time></trkpt><trkpt lat="47.915269" lon="6.802462"><ele>650</ele><time>2021-05-29T12:57:59+02:00</time></trkpt><trkpt lat="47.91511" lon="6.802376"><ele>649</ele><time>2021-05-29T12:58:04+02:00</time></trkpt><trkpt lat="47.915039" lon="6.802097"><ele>641</ele><time>2021-05-29T12:58:09+02:00</time></trkpt><trkpt lat="47.914923" lon="6.801947"><ele>638</ele><time>2021-05-29T12:58:14+02:00</time></trkpt><trkpt lat="47.914737" lon="6.801775"><ele>635</ele><time>2021-05-29T12:58:19+02:00</time></trkpt><trkpt lat="47.914693" lon="6.801647"><ele>631</ele><time>2021-05-29T12:58:24+02:00</time></trkpt><trkpt lat="47.914535" lon="6.801518"><ele>627</ele><time>2021-05-29T12:58:29+02:00</time></trkpt><trkpt lat="47.914449" lon="6.801432"><ele>625</ele><time>2021-05-29T12:58:34+02:00</time></trkpt><trkpt lat="47.914334" lon="6.801389"><ele>622</ele><time>2021-05-29T12:58:39+02:00</time></trkpt><trkpt lat="47.91419" lon="6.801325"><ele>619</ele><time>2021-05-29T12:58:44+02:00</time></trkpt><trkpt lat="47.914104" lon="6.80126"><ele>616</ele><time>2021-05-29T12:58:49+02:00</time></trkpt></trkseg></trk></gpx>